Time;durP1;ratioP1;P1;durP2;ratioP2;P2;SDS_P1;SDS_P2;PMS_P1;PMS_P2;Temp;Humidity;BMP_temperature;BMP_pressure;BME280_temperature;BME280_humidity;BME280_pressure;Samples;Min_cycle;Max_cycle;Signal;HPM_P1;HPM_P2
2022/06/18 00:01:36;;;;;;;2.38;1.00;;;18.10;49.50;20.10;94573.00;;;;10358676;28;45892;-59
2022/06/18 00:06:59;;;;;;;1.13;0.90;;;18.10;49.40;20.00;94572.00;;;;10358832;28;45337;-60
2022/06/18 00:18:07;;;;;;;1.10;0.90;;;18.00;49.30;20.00;94549.00;;;;10358393;28;45258;-61
2022/06/18 00:23:29;;;;;;;2.42;1.08;;;18.00;49.30;20.00;94535.00;;;;10359121;28;45790;-60
2022/06/18 00:28:51;;;;;;;1.10;0.90;;;18.00;49.10;20.00;94553.00;;;;10358111;28;45206;-60
2022/06/18 00:34:12;;;;;;;1.40;1.00;;;18.00;49.00;20.00;94542.00;;;;10358300;28;45852;-61
2022/06/18 00:39:33;;;;;;;1.00;0.88;;;18.00;49.10;20.00;94535.00;;;;10357443;28;45154;-60
2022/06/18 00:44:59;;;;;;;1.23;0.93;;;18.00;49.00;20.00;94541.00;;;;10357981;28;45115;-60
2022/06/18 00:50:26;;;;;;;1.25;0.90;;;18.00;48.90;19.90;94529.00;;;;10357462;28;45241;-60
2022/06/18 00:55:53;;;;;;;1.30;0.95;;;18.00;48.90;19.90;94540.00;;;;10356719;28;45225;-60
2022/06/18 01:01:22;;;;;;;1.73;0.95;;;18.00;48.90;19.90;94534.00;;;;10351265;28;45363;-59
2022/06/18 01:06:43;;;;;;;1.10;0.90;;;17.90;48.70;19.90;94543.00;;;;10353243;28;45153;-59
2022/06/18 01:12:05;;;;;;;1.55;0.90;;;17.90;48.60;19.90;94537.00;;;;10356712;28;45156;-62
2022/06/18 01:17:28;;;;;;;1.48;0.98;;;17.90;48.50;19.90;94536.00;;;;10355990;28;45813;-60
2022/06/18 01:22:56;;;;;;;1.35;1.00;;;17.90;48.40;19.90;94534.00;;;;10356196;28;45241;-60
2022/06/18 01:28:20;;;;;;;1.90;1.00;;;17.90;48.20;19.90;94530.00;;;;10355791;28;45420;-60
2022/06/18 01:33:41;;;;;;;1.55;0.80;;;17.90;48.10;19.90;94527.00;;;;10356120;28;45225;-61
2022/06/18 01:39:05;;;;;;;2.20;1.08;;;17.90;48.00;19.90;94526.00;;;;10355327;28;45299;-60
2022/06/18 01:44:33;;;;;;;1.13;1.00;;;17.90;48.20;19.90;94520.00;;;;10355519;28;45500;-60
2022/06/18 01:49:59;;;;;;;2.67;1.10;;;17.90;48.10;19.90;94525.00;;;;10355216;28;45129;-60
2022/06/18 01:55:24;;;;;;;1.50;1.10;;;17.90;48.20;19.90;94522.00;;;;10355022;28;45225;-60
2022/06/18 02:00:51;;;;;;;1.80;0.80;;;17.90;48.30;19.90;94510.00;;;;10355865;28;45122;-59
2022/06/18 02:06:11;;;;;;;1.85;0.95;;;17.90;48.10;19.90;94492.00;;;;10355108;28;45227;-63
2022/06/18 02:11:32;;;;;;;1.55;0.90;;;17.90;48.00;19.80;94506.00;;;;10354766;28;45110;-60
2022/06/18 02:16:56;;;;;;;1.63;0.90;;;17.90;48.00;19.80;94498.00;;;;10354489;28;45804;-60
2022/06/18 02:22:17;;;;;;;2.70;0.93;;;17.90;48.00;19.80;94498.00;;;;10353321;28;45390;-62
2022/06/18 02:27:39;;;;;;;1.20;1.08;;;17.90;48.00;19.80;94512.00;;;;10354184;28;45770;-60
2022/06/18 02:33:07;;;;;;;1.77;1.15;;;17.90;48.40;19.80;94508.00;;;;10354054;28;45167;-61
2022/06/18 02:38:28;;;;;;;1.10;0.90;;;17.80;48.30;19.80;94494.00;;;;10353295;28;45981;-61
2022/06/18 02:43:48;;;;;;;1.40;1.10;;;17.90;48.10;19.80;94497.00;;;;10353963;28;45373;-61
2022/06/18 02:49:12;;;;;;;1.00;0.90;;;17.80;48.00;19.80;94494.00;;;;10354085;28;45253;-60
2022/06/18 02:54:33;;;;;;;1.73;0.95;;;17.80;48.20;19.80;94490.00;;;;10354044;28;45114;-59
2022/06/18 02:59:53;;;;;;;1.67;0.95;;;17.80;48.10;19.80;94496.00;;;;10353754;28;46100;-61
2022/06/18 03:05:23;;;;;;;1.35;1.08;;;17.80;48.20;19.80;94492.00;;;;10353296;28;45025;-60
2022/06/18 03:16:24;;;;;;;1.80;1.20;;;17.80;48.30;19.80;94473.00;;;;10340227;28;45155;-60
2022/06/18 03:21:51;;;;;;;1.40;1.10;;;17.80;48.80;19.80;94486.00;;;;10353014;28;45092;-61
2022/06/18 03:27:14;;;;;;;1.35;1.20;;;17.80;48.00;19.70;94487.00;;;;10352838;28;45339;-59
2022/06/18 03:32:34;;;;;;;1.70;1.15;;;17.70;47.90;19.70;94488.00;;;;10357328;28;45038;-59
2022/06/18 03:37:56;;;;;;;1.10;1.00;;;17.60;48.10;19.70;94497.00;;;;10359691;28;45193;-59
2022/06/18 03:43:16;;;;;;;1.42;1.02;;;17.70;48.20;19.70;94504.00;;;;10360246;28;45245;-60
2022/06/18 03:48:45;;;;;;;1.17;0.90;;;17.70;48.20;19.70;94507.00;;;;10430399;22;46268;-66
2022/06/18 03:54:07;;;;;;;1.40;0.93;;;17.60;48.40;19.70;94499.00;;;;10404956;28;45131;-69
2022/06/18 03:59:28;;;;;;;4.07;1.02;;;17.60;48.20;19.70;94513.00;;;;10368166;28;45137;-68
2022/06/18 04:04:49;;;;;;;1.15;0.90;;;17.60;48.30;19.70;94514.00;;;;10363818;28;45105;-68
2022/06/18 04:10:17;;;;;;;1.63;1.23;;;17.60;48.40;19.70;94516.00;;;;10363509;28;45200;-68
2022/06/18 04:15:37;;;;;;;1.30;1.10;;;17.70;48.40;19.70;94507.00;;;;10362597;28;45181;-68
2022/06/18 04:20:59;;;;;;;1.73;1.10;;;17.60;48.40;19.70;94508.00;;;;10363173;28;45322;-68
2022/06/18 04:26:21;;;;;;;1.52;1.00;;;17.70;48.70;19.70;94509.00;;;;10362402;28;45185;-68
2022/06/18 04:31:42;;;;;;;1.92;1.17;;;17.70;49.00;19.70;94493.00;;;;10362934;28;45861;-68
2022/06/18 04:37:03;;;;;;;1.73;1.20;;;17.70;49.10;19.70;94503.00;;;;10361879;28;45181;-68
2022/06/18 04:42:25;;;;;;;1.80;1.30;;;17.70;49.40;19.70;94511.00;;;;10360790;28;45093;-68
2022/06/18 04:47:46;;;;;;;3.60;1.30;;;17.70;49.50;19.70;94505.00;;;;10361970;28;45203;-68
2022/06/18 04:53:10;;;;;;;2.70;1.30;;;17.70;49.80;19.70;94502.00;;;;10361714;28;45849;-68
2022/06/18 04:58:32;;;;;;;2.83;1.10;;;17.70;50.00;19.70;94516.00;;;;10361039;28;45145;-68
2022/06/18 05:03:52;;;;;;;3.13;1.25;;;17.70;50.30;19.70;94519.00;;;;10361709;28;45785;-68
2022/06/18 05:09:13;;;;;;;1.85;1.17;;;17.70;50.80;19.70;94513.00;;;;10361504;28;45106;-68
2022/06/18 05:14:35;;;;;;;1.38;1.00;;;17.70;51.10;19.70;94505.00;;;;10361667;28;45169;-68
2022/06/18 05:19:56;;;;;;;1.58;1.10;;;17.70;51.40;19.70;94519.00;;;;10359452;28;45178;-68
2022/06/18 05:25:18;;;;;;;1.67;1.08;;;17.70;51.80;19.70;94505.00;;;;10359607;28;45106;-68
2022/06/18 05:30:41;;;;;;;1.20;1.10;;;17.70;51.90;19.70;94513.00;;;;10359827;28;45190;-68
2022/06/18 05:36:01;;;;;;;2.03;1.02;;;17.70;52.10;19.70;94496.00;;;;10360236;28;45228;-68
2022/06/18 05:41:22;;;;;;;2.60;1.08;;;17.70;52.20;19.70;94500.00;;;;10360409;28;45179;-68
2022/06/18 05:46:44;;;;;;;2.55;1.20;;;17.70;52.30;19.80;94495.00;;;;10358917;28;45226;-68
2022/06/18 05:52:05;;;;;;;1.20;1.10;;;17.80;52.30;19.80;94490.00;;;;10358401;28;45879;-68
2022/06/18 05:57:26;;;;;;;1.83;1.10;;;17.80;52.30;19.80;94475.00;;;;10358821;28;45866;-69
2022/06/18 06:02:48;;;;;;;1.85;1.40;;;17.80;52.50;19.80;94492.00;;;;10360587;28;45157;-68
2022/06/18 06:08:11;;;;;;;1.58;1.08;;;17.80;52.80;19.80;94490.00;;;;10359451;28;45107;-68
2022/06/18 06:13:32;;;;;;;1.35;1.05;;;17.80;52.80;19.80;94495.00;;;;10359807;28;45689;-68
2022/06/18 06:18:54;;;;;;;1.27;1.05;;;17.80;52.80;19.80;94493.00;;;;10357837;28;45171;-68
2022/06/18 06:24:14;;;;;;;1.15;1.05;;;17.80;52.60;19.80;94474.00;;;;10358660;28;45221;-68
2022/06/18 06:29:35;;;;;;;1.52;0.93;;;17.80;52.50;19.80;94477.00;;;;10358201;28;45150;-68
2022/06/18 06:34:57;;;;;;;1.40;1.20;;;17.90;52.90;19.90;94479.00;;;;10358649;28;45857;-68
2022/06/18 06:40:18;;;;;;;1.48;1.23;;;17.80;52.80;19.90;94458.00;;;;10357944;28;45193;-68
2022/06/18 06:45:38;;;;;;;1.55;1.20;;;17.80;53.00;19.90;94456.00;;;;10357673;28;45207;-68
2022/06/18 06:51:00;;;;;;;1.42;1.10;;;17.80;53.20;19.90;94461.00;;;;10357341;28;45376;-68
2022/06/18 07:02:03;;;;;;;1.25;1.15;;;17.90;53.00;19.90;94463.00;;;;10356827;28;45392;-68
2022/06/18 07:07:25;;;;;;;1.40;1.10;;;17.90;53.00;19.90;94482.00;;;;10360339;28;45415;-68
2022/06/18 07:12:46;;;;;;;1.13;0.90;;;17.90;53.00;19.90;94470.00;;;;10363084;28;45178;-67
2022/06/18 07:18:15;;;;;;;2.03;1.13;;;17.90;53.00;20.00;94479.00;;;;10363358;28;45868;-69
2022/06/18 07:23:37;;;;;;;3.13;1.27;;;17.90;53.50;20.00;94476.00;;;;10364974;28;45135;-69
2022/06/18 07:28:58;;;;;;;4.68;1.30;;;17.90;53.90;20.00;94484.00;;;;10363845;28;45209;-66
2022/06/18 07:34:19;;;;;;;3.90;1.30;;;17.90;54.10;20.00;94470.00;;;;10366478;28;45068;-69
2022/06/18 07:39:41;;;;;;;5.15;1.20;;;17.90;54.20;20.10;94467.00;;;;10364044;28;45876;-69
2022/06/18 07:45:02;;;;;;;5.97;1.20;;;18.00;54.40;20.10;94447.00;;;;10366908;28;45333;-69
2022/06/18 07:50:24;;;;;;;4.95;1.23;;;18.00;54.00;20.00;94450.00;;;;10366020;28;45891;-69
2022/06/18 07:55:45;;;;;;;4.18;1.20;;;18.00;54.10;20.10;94444.00;;;;10362737;28;45182;-67
2022/06/18 08:01:06;;;;;;;4.05;1.30;;;18.00;54.80;20.10;94438.00;;;;10361849;28;45229;-71
2022/06/18 08:06:27;;;;;;;5.88;1.20;;;18.00;54.40;20.10;94457.00;;;;10361213;28;45619;-71
2022/06/18 08:11:50;;;;;;;4.18;1.20;;;18.10;54.50;20.10;94449.00;;;;10363906;28;45782;-74
2022/06/18 08:17:11;;;;;;;4.65;1.10;;;18.10;54.30;20.20;94427.00;;;;10378974;28;45093;-73
2022/06/18 08:22:32;;;;;;;3.85;1.10;;;18.10;54.40;20.20;94441.00;;;;10383699;28;45200;-74
2022/06/18 08:27:56;;;;;;;7.63;1.40;;;18.10;53.90;20.20;94435.00;;;;10367816;28;45260;-63
2022/06/18 08:33:17;;;;;;;4.82;1.60;;;18.10;54.20;20.20;94429.00;;;;10359163;28;45154;-63
2022/06/18 08:38:39;;;;;;;10.25;1.55;;;18.10;54.40;20.20;94411.00;;;;10358769;28;45187;-64
2022/06/18 08:44:34;;;;;;;4.85;1.30;;;18.10;54.40;20.20;94417.00;;;;10358602;28;45677;-63
2022/06/18 08:50:19;;;;;;;5.40;1.38;;;18.10;54.40;20.20;94411.00;;;;10357799;28;45206;-63
2022/06/18 08:55:46;;;;;;;5.85;1.60;;;18.10;54.30;20.20;94410.00;;;;10358042;28;45223;-63
2022/06/18 09:01:17;;;;;;;7.00;1.50;;;18.10;54.30;20.20;94416.00;;;;10357816;28;45713;-63
2022/06/18 09:07:03;;;;;;;2.20;1.08;;;18.00;54.10;20.20;94420.00;;;;10356648;28;45217;-63
2022/06/18 09:12:30;;;;;;;3.83;1.50;;;18.00;54.20;20.20;94417.00;;;;10357912;28;45165;-63
2022/06/18 09:17:58;;;;;;;5.25;1.30;;;18.00;54.30;20.20;94412.00;;;;10357745;28;45893;-63
2022/06/18 09:23:27;;;;;;;2.10;1.20;;;18.10;54.20;20.20;94390.00;;;;10357357;28;45748;-63
2022/06/18 09:28:58;;;;;;;2.90;1.40;;;18.00;54.30;20.20;94409.00;;;;10356167;28;45884;-63
2022/06/18 09:34:25;;;;;;;4.65;1.40;;;18.00;54.80;20.20;94382.00;;;;10357397;28;45864;-63
2022/06/18 09:39:49;;;;;;;4.35;1.10;;;18.00;54.10;20.20;94397.00;;;;10356564;28;45932;-63
2022/06/18 09:45:21;;;;;;;2.90;1.25;;;18.00;54.20;20.20;94384.00;;;;10356390;28;45896;-63
2022/06/18 09:50:48;;;;;;;3.70;1.52;;;18.00;54.30;20.20;94393.00;;;;10354195;28;45182;-62
2022/06/18 09:56:11;;;;;;;2.93;0.90;;;18.10;54.30;20.30;94393.00;;;;10355361;28;45674;-64
2022/06/18 10:01:40;;;;;;;4.88;1.30;;;18.20;54.10;20.30;94377.00;;;;10355916;28;45185;-67
2022/06/18 10:07:04;;;;;;;3.50;1.02;;;18.20;53.80;20.30;94386.00;;;;10355405;28;45169;-62
2022/06/18 10:12:30;;;;;;;2.15;1.08;;;18.20;53.90;20.40;94372.00;;;;10355920;28;45166;-62
2022/06/18 10:18:12;;;;;;;1.92;0.95;;;18.30;53.80;20.40;94381.00;;;;10355296;28;45869;-66
2022/06/18 10:23:49;;;;;;;3.67;1.00;;;18.30;53.80;20.40;94375.00;;;;10355906;28;45685;-64
2022/06/18 10:29:18;;;;;;;3.35;1.00;;;18.30;54.50;20.40;94380.00;;;;10354661;28;45792;-65
2022/06/18 10:34:58;;;;;;;1.83;1.10;;;18.30;54.00;20.40;94384.00;;;;10355585;28;45129;-65
2022/06/18 10:40:34;;;;;;;2.05;1.05;;;18.30;54.20;20.40;94372.00;;;;10354371;28;45868;-66
2022/06/18 10:45:59;;;;;;;1.95;1.00;;;18.30;54.30;20.40;94369.00;;;;10352807;28;45377;-64
2022/06/18 10:51:22;;;;;;;4.35;1.17;;;18.30;54.30;20.40;94372.00;;;;10355067;28;45094;-65
2022/06/18 10:56:51;;;;;;;1.58;1.20;;;18.30;54.40;20.40;94356.00;;;;10354610;28;45347;-64
2022/06/18 11:02:18;;;;;;;2.60;1.10;;;18.30;54.40;20.40;94357.00;;;;10354906;28;45902;-65
2022/06/18 11:07:39;;;;;;;2.45;0.90;;;18.30;54.50;20.40;94355.00;;;;10354340;28;45869;-64
2022/06/18 11:13:05;;;;;;;3.20;1.10;;;18.20;54.50;20.40;94331.00;;;;10354425;28;45206;-66
2022/06/18 11:18:26;;;;;;;3.03;1.40;;;18.30;54.50;20.40;94328.00;;;;10353589;28;45195;-67
2022/06/18 11:23:54;;;;;;;3.63;1.40;;;18.20;54.50;20.30;94324.00;;;;10354167;28;45158;-65
2022/06/18 11:29:27;;;;;;;3.92;1.55;;;18.20;54.60;20.30;94301.00;;;;10353387;28;45253;-65
2022/06/18 11:34:52;;;;;;;3.58;1.58;;;18.20;54.60;20.30;94309.00;;;;10354134;28;45105;-64
2022/06/18 11:40:21;;;;;;;5.78;2.15;;;18.20;54.70;20.30;94304.00;;;;10353241;28;45222;-65
2022/06/18 11:45:50;;;;;;;4.40;2.05;;;18.30;54.60;20.30;94293.00;;;;10353051;28;45705;-65
2022/06/18 11:51:18;;;;;;;6.57;2.60;;;18.20;54.70;20.30;94294.00;;;;10354245;28;45388;-64
2022/06/18 11:56:53;;;;;;;7.72;2.60;;;18.20;54.70;20.40;94288.00;;;;10360328;28;45189;-64
2022/06/18 12:02:20;;;;;;;6.97;2.90;;;18.30;54.80;20.40;94284.00;;;;10360445;28;45181;-65
2022/06/18 12:07:48;;;;;;;6.30;2.53;;;18.20;54.80;20.40;94261.00;;;;10359773;28;45223;-65
2022/06/18 12:13:19;;;;;;;6.15;2.60;;;18.20;54.80;20.40;94254.00;;;;10360314;28;45399;-65
2022/06/18 12:18:50;;;;;;;9.13;3.10;;;18.30;54.90;20.40;94260.00;;;;10359523;28;45721;-65
2022/06/18 12:24:25;;;;;;;8.32;2.50;;;18.30;55.00;20.40;94260.00;;;;10359390;28;45110;-64
2022/06/18 12:30:05;;;;;;;7.53;2.90;;;18.30;55.00;20.40;94252.00;;;;10359474;28;45419;-65
2022/06/18 12:35:37;;;;;;;5.65;2.38;;;18.30;55.00;20.40;94228.00;;;;10358942;28;45154;-66
2022/06/18 12:41:04;;;;;;;7.93;2.67;;;18.30;55.00;20.40;94221.00;;;;10359078;28;45152;-65
2022/06/18 12:46:30;;;;;;;7.45;2.70;;;18.30;55.00;20.40;94229.00;;;;10357764;28;45302;-66
2022/06/18 12:51:59;;;;;;;6.80;2.50;;;18.30;55.00;20.40;94218.00;;;;10358798;28;45916;-65
2022/06/18 12:57:29;;;;;;;7.07;2.30;;;18.40;55.00;20.50;94202.00;;;;10358473;28;45721;-65
2022/06/18 13:03:20;;;;;;;8.40;2.67;;;18.30;55.00;20.50;94188.00;;;;10357480;28;45127;-66
2022/06/18 13:08:57;;;;;;;6.88;2.33;;;18.40;55.00;20.50;94193.00;;;;10357751;28;45794;-64
2022/06/18 13:14:38;;;;;;;6.97;2.55;;;18.40;55.10;20.50;94176.00;;;;10358490;28;45209;-65
2022/06/18 13:20:05;;;;;;;5.70;2.20;;;18.40;55.10;20.50;94168.00;;;;10356775;28;45539;-65
2022/06/18 13:31:13;;;;;;;5.45;2.40;;;18.40;55.00;20.50;94172.00;;;;10356585;28;45175;-64
2022/06/18 13:36:47;;;;;;;7.38;2.20;;;18.40;55.00;20.50;94158.00;;;;10356991;28;45430;-65
2022/06/18 13:42:20;;;;;;;3.50;1.70;;;18.40;55.10;20.60;94147.00;;;;10356916;28;45773;-65
2022/06/18 13:47:49;;;;;;;5.50;2.10;;;18.40;55.10;20.60;94146.00;;;;10356198;28;45892;-65
2022/06/18 13:53:10;;;;;;;4.57;1.95;;;18.50;55.00;20.60;94124.00;;;;10356965;28;45214;-65
2022/06/18 13:58:35;;;;;;;4.55;2.00;;;18.50;55.00;20.60;94129.00;;;;10356137;28;45169;-65
2022/06/18 14:04:00;;;;;;;4.43;1.90;;;18.50;55.10;20.60;94120.00;;;;10356795;28;45395;-66
2022/06/18 14:09:25;;;;;;;4.93;1.80;;;18.50;55.00;20.60;94121.00;;;;10355952;28;45861;-65
2022/06/18 14:14:47;;;;;;;5.88;1.80;;;18.50;54.90;20.70;94117.00;;;;10356137;28;45354;-65
2022/06/18 14:20:25;;;;;;;5.15;1.73;;;18.50;54.80;20.70;94100.00;;;;10356084;28;45974;-65
2022/06/18 14:25:58;;;;;;;3.97;1.50;;;18.60;54.80;20.70;94109.00;;;;10355299;28;45171;-65
2022/06/18 14:31:35;;;;;;;3.65;1.70;;;18.60;54.80;20.70;94105.00;;;;10355523;28;45194;-65
2022/06/18 14:37:04;;;;;;;4.28;1.35;;;18.60;54.70;20.70;94077.00;;;;10354274;28;45253;-65
2022/06/18 14:42:47;;;;;;;5.15;1.58;;;18.60;54.50;20.70;94080.00;;;;10341764;28;45180;-64
2022/06/18 14:48:32;;;;;;;5.60;1.50;;;18.60;54.40;20.80;94062.00;;;;10339481;28;45203;-65
2022/06/18 14:54:48;;;;;;;3.85;1.50;;;18.70;54.30;20.80;94059.00;;;;10354318;28;45201;-65
2022/06/18 15:00:39;;;;;;;4.72;1.58;;;18.70;54.20;20.80;94052.00;;;;10354823;28;45226;-65
2022/06/18 15:06:08;;;;;;;5.60;1.50;;;18.70;54.00;20.80;94047.00;;;;10354265;28;45162;-65
2022/06/18 15:11:30;;;;;;;6.63;1.55;;;18.70;54.00;20.80;94043.00;;;;10354784;28;45105;-64
2022/06/18 15:17:12;;;;;;;7.15;1.38;;;18.70;53.90;20.90;94038.00;;;;10354051;28;45789;-65
2022/06/18 15:22:55;;;;;;;6.85;1.80;;;18.80;53.80;20.90;94028.00;;;;10353904;28;45729;-65
2022/06/18 15:28:22;;;;;;;8.98;2.30;;;18.80;53.70;20.90;93999.00;;;;10354673;28;45186;-64
2022/06/18 15:33:50;;;;;;;6.32;1.42;;;18.80;53.60;20.90;93998.00;;;;10360852;28;45930;-65
2022/06/18 15:39:20;;;;;;;5.78;1.60;;;18.90;53.80;21.00;93996.00;;;;10360137;28;45689;-65
2022/06/18 15:44:54;;;;;;;5.85;1.70;;;18.90;53.60;21.00;93976.00;;;;10361032;28;45153;-65
2022/06/18 15:50:21;;;;;;;6.63;1.60;;;18.90;53.60;21.00;93966.00;;;;10417381;22;45796;-66
2022/06/18 15:55:45;;;;;;;4.45;1.20;;;18.90;53.60;21.00;93966.00;;;;10398759;28;45309;-66
2022/06/18 16:01:06;;;;;;;4.25;1.52;;;19.00;53.50;21.10;93963.00;;;;10359144;28;45247;-66
2022/06/18 16:06:27;;;;;;;4.80;1.40;;;19.00;53.50;21.10;93968.00;;;;10359507;28;45417;-63
2022/06/18 16:12:10;;;;;;;3.88;1.27;;;19.00;53.40;21.10;93949.00;;;;10359754;28;45250;-64
2022/06/18 16:17:34;;;;;;;6.28;1.33;;;19.00;53.30;21.10;93938.00;;;;10359243;28;45733;-67
2022/06/18 16:23:05;;;;;;;4.15;1.42;;;19.10;53.20;21.10;93919.00;;;;10359304;28;45113;-64
2022/06/18 16:28:30;;;;;;;2.70;1.27;;;19.10;53.20;21.20;93920.00;;;;10358707;28;45363;-66
2022/06/18 16:33:52;;;;;;;4.05;1.20;;;19.10;53.20;21.20;93910.00;;;;10358926;28;45124;-66
2022/06/18 16:39:13;;;;;;;2.65;1.20;;;19.10;53.20;21.20;93910.00;;;;10357016;28;45137;-66
2022/06/18 16:44:35;;;;;;;3.67;1.10;;;19.10;53.30;21.20;93891.00;;;;10358572;28;45108;-66
2022/06/18 16:49:57;;;;;;;4.20;1.17;;;19.10;53.20;21.20;93897.00;;;;10357898;28;45756;-67
2022/06/18 16:55:20;;;;;;;3.90;1.30;;;19.10;53.30;21.20;93891.00;;;;10358647;28;45160;-66
2022/06/18 17:00:44;;;;;;;3.33;1.20;;;19.10;53.10;21.30;93894.00;;;;10357869;28;45775;-67
2022/06/18 17:06:06;;;;;;;3.70;1.27;;;19.10;53.00;21.20;93892.00;;;;10351855;28;45307;-66
2022/06/18 17:11:29;;;;;;;4.95;1.10;;;19.10;53.20;21.20;93883.00;;;;10355275;28;45206;-68
2022/06/18 17:16:50;;;;;;;5.57;1.42;;;19.10;53.20;21.20;93892.00;;;;10350829;28;45204;-68
2022/06/18 17:22:11;;;;;;;3.33;1.20;;;19.10;53.10;21.20;93884.00;;;;10356817;28;45234;-67
2022/06/18 17:33:12;;;;;;;4.53;1.40;;;19.10;53.10;21.20;93870.00;;;;10356779;28;45802;-67
2022/06/18 17:38:33;;;;;;;4.95;1.40;;;19.10;53.90;21.20;93864.00;;;;10356716;28;45076;-66
2022/06/18 17:43:54;;;;;;;2.95;1.35;;;19.10;53.20;21.20;93855.00;;;;10356492;28;45145;-67
2022/06/18 17:49:16;;;;;;;5.40;1.33;;;19.10;53.10;21.20;93845.00;;;;10354550;28;45315;-64
2022/06/18 17:54:37;;;;;;;4.32;1.23;;;19.10;53.30;21.20;93834.00;;;;10356352;28;45139;-64
2022/06/18 17:59:59;;;;;;;3.17;1.20;;;19.10;53.30;21.20;93817.00;;;;10356267;28;45199;-64
2022/06/18 18:05:22;;;;;;;3.50;1.10;;;19.10;53.30;21.20;93811.00;;;;10356303;28;45721;-67
2022/06/18 18:10:43;;;;;;;3.05;1.20;;;19.10;53.30;21.20;93813.00;;;;10356038;28;45689;-63
2022/06/18 18:16:04;;;;;;;2.58;1.20;;;19.10;53.30;21.20;93826.00;;;;10354692;28;45896;-66
2022/06/18 18:21:26;;;;;;;2.80;1.08;;;19.00;53.40;21.20;93832.00;;;;10356050;28;45189;-63
2022/06/18 18:26:49;;;;;;;5.43;1.50;;;19.00;53.50;21.10;93825.00;;;;10355122;28;45365;-66
2022/06/18 18:32:11;;;;;;;4.25;1.27;;;19.00;53.70;21.10;93828.00;;;;10355265;28;45408;-66
2022/06/18 18:37:34;;;;;;;4.13;1.40;;;19.00;53.80;21.10;93829.00;;;;10354735;28;45229;-67
2022/06/18 18:42:55;;;;;;;5.32;1.35;;;19.00;53.80;21.10;93834.00;;;;10355144;28;45185;-64
